ADDS METAR Data INFO
IDs: Format: Raw Decoded Include TAF

Data at: 1050 UTC 18 Aug 2017

KDAL 180953Z 18003KT 10SM BKN170 BKN250 26/22 A2997 RMK AO2 SLP141 T02610217 $
KDAL 180853Z 14005KT 10SM BKN180 OVC250 26/22 A2998 RMK AO2 SLP144 T02560217 57003 $
KDAL 180753Z 12005KT 10SM BKN200 OVC250 26/21 A2998 RMK AO2 SLP144 T02610211 $
KDAL 180653Z 11005KT 10SM BKN240 OVC300 26/21 A2999 RMK AO2 SLP147 T02610211 $
KDAL 180553Z 00000KT 10SM BKN240 BKN300 26/21 A2999 RMK AO2 SLP147 60000 T02610211 10306 20261 403330222 56006 $
KDAL 180453Z 00000KT 10SM SCT200 OVC230 26/21 A2999 RMK AO2 SLP149 T02610211 $
KDAL 180353Z 00000KT 10SM SCT200 OVC240 27/20 A2999 RMK AO2 SLP147 T02670200 $
KDAL 180253Z 19004KT 10SM FEW060 SCT200 OVC240 27/21 A3001 RMK AO2 SLP154 60000 T02670206 51020 $
KDAL 180153Z 22008KT 10SM FEW060TCU BKN200 BKN250 28/20 A2999 RMK AO2 SLP149 TCU NE T02780200 $
KDAL 180053Z 24005KT 10SM FEW060 FEW100 SCT170 BKN210 BKN250 29/21 A2996 RMK AO2 RAB24E51 SLP139 P0000 T02940206
KDAL 172353Z 08003KT 10SM FEW040 FEW100 BKN170 BKN250 30/25 A2995 RMK AO2 SLP133 OCNL LTGIC CB DSNT SW STNRY TCU DSNT S W-NW T03000250 10333 20294 56004
KDAL 172253Z 13004KT 10SM FEW040 FEW110 BKN170 BKN250 31/25 A2995 RMK AO2 SLP133 CB DSNT SW-W STNRY TCU DSNT W-NW T03060250
KDAL 172153Z 18004KT 10SM FEW040 SCT110 BKN220 BKN250 32/23 A2994 RMK AO2 SLP131 OCNL LTGIC DSNT SW-W CB DSNT SW-W STNRY TCU DSNT W-N T03170228
KDAL 172053Z 19007KT 10SM FEW040CB SCT110 BKN220 BKN250 32/23 A2996 RMK AO2 TSB31E50 SLP136 OCNL LTGIC DSNT SW-W TS DSIPTD CB SE-SW-OHD AND DSNT S-W STNRY TCU W-NW T03170228 58020
KDAL 172031Z 15010KT 10SM TS FEW040CB SCT110 BKN200 BKN250 33/25 A2996 RMK AO2 TSB31 OCNL LTGIC SW AND DSNT W TS SW STNRY CB DSNT SW-W STNRY TCU DSNT W-NW T03280250
KDAL 171953Z 15011KT 10SM FEW040CB SCT110 BKN200 BKN250 33/25 A2998 RMK AO2 SLP143 OCNL LTGIC DSNT S-SW CB SW AND DSNT SE-SW MOV E TCU S AND DSNT SW-NW T03280250
KDAL 171853Z 13009KT 10SM FEW021TCU FEW110 BKN200 BKN250 31/25 A3000 RMK AO2 SLP151 OCNL LTGIC CB DSNT S MOV E TCU SW AND DSNT W-NW T03060250
KDAL 171753Z 12012KT 10SM FEW017 SCT023 SCT110 BKN200 BKN250 29/24 A3002 RMK AO2 SLP156 60001 T02940244 10294 20222 50006
KDAL 171745Z 13012KT 10SM FEW017 SCT026 BKN110 BKN200 BKN250 29/25 A3002 RMK AO2 T02940250
KDAL 171653Z 15009KT 10SM BKN015 OVC023 28/24 A3003 RMK AO2 SLP160 T02780239
KDAL 171625Z 14011KT 10SM FEW013 SCT023 BKN110 BKN140 OVC250 28/24 A3002 RMK AO2 SCT V BKN T02780239
KDAL 171553Z 13009KT 10SM FEW009 BKN024 BKN050 BKN140 OVC250 27/24 A3002 RMK AO2 SLP157 BKN024 V SCT T02670239
KDAL 171516Z 14011KT 10SM FEW007 BKN024 OVC250 26/23 A3001 RMK AO2 BKN V OVC T02560233
KDAL 171453Z 15014KT 10SM FEW005 SCT023 SCT050 BKN130 OVC250 25/23 A3000 RMK AO2 SLP151 OCNL LTGICCG CB DSNT E-SE MOV E 60001 T02500233 50003
KDAL 171427Z 14014KT 10SM FEW007 SCT026 BKN050 BKN130 OVC250 25/23 A3000 RMK AO2 OCNL LTGICCG CB DSNT NE-SE MOV E T02500228
KDAL 171353Z 13010KT 10SM FEW008 BKN029 OVC055 24/23 A3000 RMK AO2 RAE1259 TSE31 SLP151 OCNL LTGICCG DSNT NE-SE TS MOVD E CB DSNT NE-SE MOV E P0000 T02390228
KDAL 171332Z 12007KT 10SM FEW008 BKN029 OVC038 24/22 A2999 RMK AO2 RAE1259 TSE31 OCNL LTGICCG DSNT NE-SE TS MOVD E CB DSNT NE-SE MOV E P0000 T02390222
KDAL 171253Z 11013KT 10SM -TSRA FEW007 OVC026CB 23/22 A3001 RMK AO2 RAE23B43 SLP153 FRQ LTGICCG TS NE-SE MOV E P0001 T02280217
KDAL 171215Z 07011KT 9SM -TSRA SCT007 OVC028CB 22/21 A3000 RMK AO2 FRQ LTGICCG TS NE-SE-S MOV E SCT V BKN P0001 T02220211
KDAL 171153Z 09012KT 4SM -TSRA BR BKN022CB BKN030 OVC050 23/21 A2999 RMK AO2 WSHFT 1046 RAB35 SLP147 VIS SW-NW 6 FRQ LTGICCG OHD AND DSNT N-E-SE TS OHD MOV E CB DSNT N-E-SE MOV E P0006 60015 70015 T02280211 10311 20228
KDAL 171151Z 09012KT 2 1/2SM -TSRA BR BKN022CB BKN030 OVC050 23/22 A2999 RMK AO2 WSHFT 1046 RAB35 VIS SW-NW 6 FRQ LTGICCG OHD AND DSNT N-E-SE TS OHD MOV E CB DSNT N-E-SE MOV E P0006
KDAL 171148Z 09012KT 1 3/4SM +TSRA BR BKN022CB OVC030 23/22 A2999 RMK AO2 WSHFT 1046 RAB35 FRQ LTGICCG OHD AND DSNT N-E-SE TS OHD MOV E CB DSNT N-E-SE MOV E P0002
KDAL 171106Z 03014G21KT 10SM TS SCT014 BKN022CB OVC080 24/21 A2999 RMK AO2 WSHFT 1046 CONS LTGICCG TS ALQDS MOV SE T02440206
KDAL 171053Z 01018G24KT 10SM TS FEW017 BKN022CB OVC080 26/21 A2999 RMK AO2 PRESRR SLP148 FRQ LTGICCG ALQDS TS ALQDS MOV SE T02560206
KDAL 170953Z 18011KT 10SM TS FEW035CB BKN070 BKN090 OVC200 28/23 A2993 RMK AO2 RAE12 SLP126 OCNL LTGICCG SW-NW AND DSNT ALQDS TS SW-NW MOV SE CB DSNT ALQDS MOV SE P0000 T02780233
KDAL 170853Z 18013KT 10SM -TSRA FEW035CB BKN090 BKN200 28/24 A2992 RMK AO2 SLP123 RAB30 TSB21 OCNL LTGICCG SE AND AND DSNT W-N TS SE MOV SE CB DSNT W-N MOV SE P0009 60009 T02780239 50005
KDAL 170846Z 18012KT 9SM -TSRA FEW035CB BKN090 BKN200 27/24 A2992 RMK AO2 RAB30 TSB21 OCNL LTGICCG SE AND DSNT NW-N TS SE MOV SE CB DSNT NW-N MOV SE P0009 T02720239
KDAL 170836Z COR 18013G20KT 2SM +TSRA FEW035CB BKN090 BKN200 28/23 A2993 RMK AO2 RAB30 TSB21E36 OCNL LTGICCG OHD AND DSNT NW-N TS OHD MOV SE CB DSNT NW-N MOV SE P0004 T02780233
KDAL 170827Z 18014G18KT 10SM TS FEW035CB BKN090 BKN200 29/22 A2993 RMK AO2 TSB21 OCNL LTGICCG OHD AND DSNT NW-N TS OHD MOV SE CB DSNT NW-N MOV SE T02940222
KDAL 170753Z 18012KT 10SM FEW050 SCT100 BKN200 30/22 A2994 RMK AO2 SLP129 T03000217
KDAL 170653Z 18011KT 10SM FEW050 BKN100 BKN200 31/22 A2992 RMK AO2 SLP122 T03060217
KDAL 170553Z 19012G18KT 10SM FEW060 SCT130 BKN200 31/22 A2990 RMK AO2 SLP118 T03110217 10350 20311 403560272 51015
KDAL 170453Z 18011G18KT 10SM FEW090 FEW120 32/21 A2990 RMK AO2 SLP117 T03170211
KDAL 170353Z 18010KT 10SM FEW090 FEW120 33/20 A2987 RMK AO2 SLP107 T03280200
KDAL 170253Z 18011KT 10SM FEW090 FEW120 33/20 A2986 RMK AO2 SLP103 T03280200 53006
KDAL 170153Z 17010KT 10SM FEW065 FEW120 FEW300 33/21 A2985 RMK AO2 SLP099 T03330211
KDAL 170053Z 17010KT 10SM SCT070 SCT095 BKN120 BKN300 34/21 A2985 RMK AO2 SLP099 T03440206
KDAL 162353Z 18012KT 10SM FEW055 BKN120 BKN170 BKN300 35/21 A2984 RMK AO2 SLP097 T03500211 10356 20322 58010
KDAL 162253Z 18010KT 10SM SCT055TCU BKN140 BKN170 BKN300 36/22 A2985 RMK AO2 SLP100 TCU NE-SE T03560222